createdAt,value
2023-02-04T00:00:54.382Z,7.51
2023-02-04T00:01:54.877Z,7.50
2023-02-04T00:02:55.094Z,7.50
2023-02-04T00:03:54.285Z,7.50
2023-02-04T00:04:54.622Z,7.47
2023-02-04T00:05:55.261Z,7.45
2023-02-04T00:06:54.196Z,7.47
2023-02-04T00:07:54.519Z,7.44
2023-02-04T00:08:54.877Z,7.45
2023-02-04T00:09:54.182Z,7.45
2023-02-04T00:10:54.474Z,7.48
2023-02-04T00:11:55.028Z,7.45
2023-02-04T00:12:54.106Z,7.45
2023-02-04T00:13:54.583Z,7.44
2023-02-04T00:14:54.907Z,7.44
2023-02-04T00:15:54.139Z,7.45
2023-02-04T00:16:54.456Z,7.45
2023-02-04T00:17:54.990Z,7.44
2023-02-04T00:18:54.972Z,7.44
2023-02-04T00:19:55.316Z,7.37
2023-02-04T00:20:54.686Z,7.39
2023-02-04T00:21:53.984Z,7.41
2023-02-04T00:22:54.331Z,7.41
2023-02-04T00:23:56.428Z,7.39
2023-02-04T00:24:53.956Z,7.36
2023-02-04T00:25:54.312Z,7.36
2023-02-04T00:26:54.732Z,7.33
2023-02-04T00:27:53.932Z,7.32
2023-02-04T00:28:54.375Z,7.33
2023-02-04T00:29:54.626Z,7.30
2023-02-04T00:30:53.857Z,7.32
2023-02-04T00:31:54.392Z,7.30
2023-02-04T00:32:54.497Z,7.30
2023-02-04T00:33:54.809Z,7.30
2023-02-04T00:34:54.071Z,7.29
2023-02-04T00:35:54.408Z,7.29
2023-02-04T00:36:54.875Z,7.29
2023-02-04T00:37:54.010Z,7.32
2023-02-04T00:38:54.332Z,7.26
2023-02-04T00:39:54.712Z,7.23
2023-02-04T00:40:53.908Z,7.23
2023-02-04T00:41:54.278Z,7.32
2023-02-04T00:42:54.583Z,7.24
2023-02-04T00:43:53.868Z,7.21
2023-02-04T00:44:54.172Z,7.19
2023-02-04T00:45:54.569Z,7.19
2023-02-04T00:46:53.801Z,7.19
2023-02-04T00:47:54.197Z,7.19
2023-02-04T00:48:54.458Z,7.18
2023-02-04T00:49:54.678Z,7.16
2023-02-04T00:50:54.999Z,7.18
2023-02-04T00:51:55.364Z,7.18
2023-02-04T00:52:53.671Z,7.19
2023-02-04T00:53:54.101Z,7.18
2023-02-04T00:54:55.254Z,7.19
2023-02-04T00:55:53.603Z,7.19
2023-02-04T00:56:54.899Z,7.21
2023-02-04T00:57:54.248Z,7.18
2023-02-04T00:58:53.568Z,7.21
2023-02-04T00:59:53.969Z,7.19
2023-02-04T01:00:54.289Z,7.18
2023-02-04T01:01:53.534Z,7.16
2023-02-04T01:02:53.888Z,7.15
2023-02-04T01:03:54.282Z,7.14
2023-02-04T01:04:53.455Z,7.15
2023-02-04T01:05:53.832Z,7.16
2023-02-04T01:06:55.046Z,7.16
2023-02-04T01:07:54.338Z,7.16
2023-02-04T01:08:54.686Z,7.16
2023-02-04T01:09:55.006Z,7.14
2023-02-04T01:10:53.466Z,7.12
2023-02-04T01:11:53.736Z,7.14
2023-02-04T01:12:53.982Z,7.14
2023-02-04T01:13:54.381Z,7.12
2023-02-04T01:14:53.615Z,7.14
2023-02-04T01:15:53.917Z,7.12
2023-02-04T01:16:53.214Z,7.15
2023-02-04T01:17:53.578Z,7.11
2023-02-04T01:18:53.853Z,7.08
2023-02-04T01:19:54.189Z,7.09
2023-02-04T01:20:54.418Z,7.08
2023-02-04T01:21:53.789Z,7.08
2023-02-04T01:22:54.132Z,7.05
2023-02-04T01:23:53.402Z,7.05
2023-02-04T01:24:53.709Z,7.01
2023-02-04T01:25:54.024Z,7.00
2023-02-04T01:26:53.334Z,6.97
2023-02-04T01:27:53.652Z,6.97
2023-02-04T01:28:53.986Z,7.00
2023-02-04T01:29:54.227Z,6.99
2023-02-04T01:30:53.714Z,7.00
2023-02-04T01:31:54.981Z,7.01
2023-02-04T01:32:53.248Z,7.04
2023-02-04T01:33:53.724Z,7.01
2023-02-04T01:34:55.352Z,7.04
2023-02-04T01:35:53.211Z,7.00
2023-02-04T01:36:53.536Z,7.01
2023-02-04T01:37:53.890Z,7.00
2023-02-04T01:38:53.194Z,6.97
2023-02-04T01:39:53.584Z,6.99
2023-02-04T01:40:53.874Z,6.97
2023-02-04T01:41:53.183Z,6.99
2023-02-04T01:42:53.549Z,7.01
2023-02-04T01:43:52.884Z,6.99
2023-02-04T01:44:53.245Z,6.99
2023-02-04T01:45:53.664Z,6.97
2023-02-04T01:46:52.915Z,6.97
2023-02-04T01:47:53.239Z,6.96
2023-02-04T01:48:53.624Z,6.99
2023-02-04T01:49:52.941Z,6.97
2023-02-04T01:50:53.273Z,6.97
2023-02-04T01:51:53.708Z,6.94
2023-02-04T01:52:52.944Z,6.96
2023-02-04T01:53:53.283Z,6.97
2023-02-04T01:54:53.647Z,6.93
2023-02-04T01:55:52.981Z,6.91
2023-02-04T01:56:53.268Z,6.91
2023-02-04T01:57:53.700Z,6.89
2023-02-04T01:58:52.934Z,6.89
2023-02-04T01:59:53.274Z,6.90
2023-02-04T02:00:53.685Z,6.90
2023-02-04T02:01:52.953Z,6.93
2023-02-04T02:02:53.272Z,6.93
2023-02-04T02:03:53.720Z,6.93
2023-02-04T02:04:52.933Z,6.94
2023-02-04T02:05:53.298Z,6.93
2023-02-04T02:06:52.653Z,6.93
2023-02-04T02:07:52.952Z,6.93
2023-02-04T02:08:53.280Z,6.94
2023-02-04T02:09:52.614Z,6.93
2023-02-04T02:10:52.939Z,6.93
2023-02-04T02:11:53.303Z,6.90
2023-02-04T02:12:52.578Z,6.91
2023-02-04T02:13:52.942Z,6.89
2023-02-04T02:14:53.288Z,6.89
2023-02-04T02:15:52.598Z,6.83
2023-02-04T02:16:52.995Z,6.86
2023-02-04T02:17:53.240Z,6.87
2023-02-04T02:18:52.562Z,6.83
2023-02-04T02:19:52.898Z,6.86
2023-02-04T02:20:53.268Z,6.87
2023-02-04T02:21:52.542Z,6.87
2023-02-04T02:22:53.875Z,6.83
2023-02-04T02:23:52.454Z,6.82
2023-02-04T02:24:52.799Z,6.81
2023-02-04T02:25:53.118Z,6.81
2023-02-04T02:26:52.468Z,6.79
2023-02-04T02:27:52.826Z,6.79
2023-02-04T02:28:53.147Z,6.81
2023-02-04T02:29:52.468Z,6.81
2023-02-04T02:30:52.968Z,6.81
2023-02-04T02:31:53.273Z,6.78
2023-02-04T02:32:52.524Z,6.76
2023-02-04T02:33:52.870Z,6.76
2023-02-04T02:34:52.193Z,6.76
2023-02-04T02:35:52.527Z,6.75
2023-02-04T02:36:52.267Z,6.79
2023-02-04T02:37:52.691Z,6.79
2023-02-04T02:38:53.031Z,6.76
2023-02-04T02:39:52.352Z,6.75
2023-02-04T02:40:52.702Z,6.72
2023-02-04T02:41:53.038Z,6.73
2023-02-04T02:42:52.339Z,6.72
2023-02-04T02:43:52.819Z,6.73
2023-02-04T02:44:54.055Z,6.72
2023-02-04T02:45:52.378Z,6.73
2023-02-04T02:46:52.686Z,6.76
2023-02-04T02:47:52.045Z,6.72
2023-02-04T02:48:52.365Z,6.75
2023-02-04T02:49:52.783Z,6.73
2023-02-04T02:50:52.025Z,6.72
2023-02-04T02:51:53.348Z,6.75
2023-02-04T02:52:53.703Z,6.73
2023-02-04T02:53:52.056Z,6.72
2023-02-04T02:54:52.033Z,6.71
2023-02-04T02:55:52.458Z,6.72
2023-02-04T02:56:52.703Z,6.72
2023-02-04T02:57:52.027Z,6.71
2023-02-04T02:58:53.327Z,6.71
2023-02-04T02:59:52.695Z,6.71
2023-02-04T03:00:51.992Z,6.72
2023-02-04T03:01:52.661Z,6.72
2023-02-04T03:02:52.818Z,6.69
2023-02-04T03:03:52.032Z,6.71
2023-02-04T03:04:51.921Z,6.71
2023-02-04T03:05:53.254Z,6.73
2023-02-04T03:06:52.676Z,6.73
2023-02-04T03:07:52.011Z,6.76
2023-02-04T03:08:52.361Z,6.76
2023-02-04T03:09:52.720Z,6.73
2023-02-04T03:10:52.075Z,6.69
2023-02-04T03:11:52.436Z,6.71
2023-02-04T03:12:51.768Z,6.69
2023-02-04T03:13:52.130Z,6.69
2023-02-04T03:14:52.483Z,6.68
2023-02-04T03:15:51.845Z,6.69
2023-02-04T03:16:53.106Z,6.68
2023-02-04T03:17:52.512Z,6.69
2023-02-04T03:18:51.810Z,6.71
2023-02-04T03:19:52.242Z,6.69
2023-02-04T03:20:52.561Z,6.71
2023-02-04T03:21:51.882Z,6.73
2023-02-04T03:22:52.242Z,6.71
2023-02-04T03:23:51.569Z,6.71
2023-02-04T03:24:51.904Z,6.69
2023-02-04T03:25:52.353Z,6.69
2023-02-04T03:26:52.544Z,6.71
2023-02-04T03:27:52.963Z,6.71
2023-02-04T03:28:52.307Z,6.68
2023-02-04T03:29:51.625Z,6.65
2023-02-04T03:30:52.119Z,6.63
2023-02-04T03:31:52.540Z,6.65
2023-02-04T03:32:51.676Z,6.63
2023-02-04T03:33:52.035Z,6.60
2023-02-04T03:34:52.411Z,6.58
2023-02-04T03:35:51.733Z,6.58
2023-02-04T03:36:52.096Z,6.57
2023-02-04T03:37:51.434Z,6.57
2023-02-04T03:38:51.796Z,6.57
2023-02-04T03:39:52.164Z,6.53
2023-02-04T03:40:51.478Z,6.51
2023-02-04T03:41:51.867Z,6.53
2023-02-04T03:42:52.185Z,6.54
2023-02-04T03:43:51.507Z,6.51
2023-02-04T03:44:51.879Z,6.50
2023-02-04T03:45:52.240Z,6.50
2023-02-04T03:46:51.507Z,6.50
2023-02-04T03:47:51.922Z,6.46
2023-02-04T03:48:53.176Z,6.48
2023-02-04T03:49:51.536Z,6.45
2023-02-04T03:50:51.856Z,6.45
2023-02-04T03:51:52.200Z,6.45
2023-02-04T03:52:52.448Z,6.42
2023-02-04T03:53:51.930Z,6.43
2023-02-04T03:54:51.197Z,6.42
2023-02-04T03:55:52.522Z,6.43
2023-02-04T03:56:52.901Z,6.43
2023-02-04T03:57:51.258Z,6.43
2023-02-04T03:58:52.584Z,6.43
2023-02-04T03:59:52.094Z,6.45
2023-02-04T04:00:51.309Z,6.45
2023-02-04T04:01:51.696Z,6.42
2023-02-04T04:02:53.006Z,6.40
2023-02-04T04:03:52.310Z,6.45
2023-02-04T04:04:51.702Z,6.42
2023-02-04T04:05:51.093Z,6.42
2023-02-04T04:06:52.349Z,6.39
2023-02-04T04:07:51.737Z,6.43
2023-02-04T04:08:51.987Z,6.45
2023-02-04T04:09:51.357Z,6.43
2023-02-04T04:10:51.974Z,6.43
2023-02-04T04:11:51.948Z,6.45
2023-02-04T04:12:51.341Z,6.46
2023-02-04T04:13:51.663Z,6.46
2023-02-04T04:14:50.978Z,6.46
2023-02-04T04:15:52.343Z,6.48
2023-02-04T04:16:51.734Z,6.48
2023-02-04T04:17:50.920Z,6.46
2023-02-04T04:18:51.264Z,6.48
2023-02-04T04:19:51.620Z,6.48
2023-02-04T04:20:50.909Z,6.50
2023-02-04T04:21:51.244Z,6.48
2023-02-04T04:22:51.633Z,6.48
2023-02-04T04:23:50.861Z,6.48
2023-02-04T04:24:52.150Z,6.46
2023-02-04T04:25:51.538Z,6.46
2023-02-04T04:26:51.791Z,6.51
2023-02-04T04:27:52.272Z,6.53
2023-02-04T04:28:51.722Z,6.46
2023-02-04T04:29:51.780Z,6.46
2023-02-04T04:30:52.206Z,6.46
2023-02-04T04:31:52.563Z,6.46
2023-02-04T04:32:52.832Z,6.46
2023-02-04T04:33:51.196Z,6.45
2023-02-04T04:34:51.629Z,6.43
2023-02-04T04:35:51.760Z,6.42
2023-02-04T04:36:52.119Z,6.43
2023-02-04T04:37:51.508Z,6.42
2023-02-04T04:38:51.762Z,6.42
2023-02-04T04:39:52.117Z,6.40
2023-02-04T04:40:51.558Z,6.40
2023-02-04T04:41:50.791Z,6.40
2023-02-04T04:42:51.156Z,6.42
2023-02-04T04:43:50.495Z,6.39
2023-02-04T04:44:50.847Z,6.39
2023-02-04T04:45:51.191Z,6.39
2023-02-04T04:46:50.610Z,6.38
2023-02-04T04:47:51.861Z,6.36
2023-02-04T04:48:51.259Z,6.36
2023-02-04T04:49:50.586Z,6.38
2023-02-04T04:50:50.930Z,6.36
2023-02-04T04:51:51.320Z,6.35
2023-02-04T04:52:50.651Z,6.32
2023-02-04T04:53:51.908Z,6.30
2023-02-04T04:54:50.478Z,6.28
2023-02-04T04:55:50.823Z,6.30
2023-02-04T04:56:51.161Z,6.27
2023-02-04T04:57:50.504Z,6.24
2023-02-04T04:58:51.742Z,6.27
2023-02-04T04:59:51.103Z,6.28
2023-02-04T05:00:51.361Z,6.27
2023-02-04T05:01:51.698Z,6.25
2023-02-04T05:02:51.062Z,6.24
2023-02-04T05:03:50.397Z,6.24
2023-02-04T05:04:51.685Z,6.21
2023-02-04T05:05:51.974Z,6.20
2023-02-04T05:06:51.239Z,6.20
2023-02-04T05:07:51.583Z,6.20
2023-02-04T05:08:51.069Z,6.24
2023-02-04T05:09:50.258Z,6.24
2023-02-04T05:10:51.579Z,6.25
2023-02-04T05:11:50.972Z,6.24
2023-02-04T05:12:51.224Z,6.21
2023-02-04T05:13:50.620Z,6.20
2023-02-04T05:14:51.000Z,6.19
2023-02-04T05:15:50.275Z,6.20
2023-02-04T05:16:51.597Z,6.19
2023-02-04T05:17:50.944Z,6.17
2023-02-04T05:18:50.237Z,6.19
2023-02-04T05:19:50.592Z,6.21
2023-02-04T05:20:51.076Z,6.19
2023-02-04T05:21:50.260Z,6.19
2023-02-04T05:22:50.628Z,6.20
2023-02-04T05:23:51.031Z,6.19
2023-02-04T05:24:50.310Z,6.16
2023-02-04T05:25:51.650Z,6.17
2023-02-04T05:26:50.146Z,6.16
2023-02-04T05:27:50.355Z,6.17
2023-02-04T05:28:50.675Z,6.17
2023-02-04T05:29:50.956Z,6.16
2023-02-04T05:30:50.408Z,6.17
2023-02-04T05:31:50.745Z,6.17
2023-02-04T05:32:50.952Z,6.16
2023-02-04T05:33:50.351Z,6.16
2023-02-04T05:34:50.692Z,6.13
2023-02-04T05:35:50.912Z,6.16
2023-02-04T05:36:50.303Z,6.14
2023-02-04T05:37:50.840Z,6.16
2023-02-04T05:38:49.954Z,6.16
2023-02-04T05:39:50.293Z,6.16
2023-02-04T05:40:51.560Z,6.14
2023-02-04T05:41:50.849Z,6.14
2023-02-04T05:42:50.235Z,6.14
2023-02-04T05:43:50.670Z,6.14
2023-02-04T05:44:49.899Z,6.16
2023-02-04T05:45:50.255Z,6.13
2023-02-04T05:46:50.578Z,6.13
2023-02-04T05:47:49.888Z,6.11
2023-02-04T05:48:51.554Z,6.08
2023-02-04T05:49:50.611Z,6.10
2023-02-04T05:50:50.839Z,6.11
2023-02-04T05:51:51.162Z,6.11
2023-02-04T05:52:50.566Z,6.13
2023-02-04T05:53:49.891Z,6.10
2023-02-04T05:54:51.179Z,6.11
2023-02-04T05:55:50.616Z,6.11
2023-02-04T05:56:50.818Z,6.10
2023-02-04T05:57:50.226Z,6.11
2023-02-04T05:58:50.589Z,6.08
2023-02-04T05:59:49.887Z,6.08
2023-02-04T06:00:51.208Z,6.10
2023-02-04T06:01:49.568Z,6.08
2023-02-04T06:02:49.916Z,6.05
2023-02-04T06:03:51.245Z,6.06
2023-02-04T06:04:49.542Z,6.06
2023-02-04T06:05:49.897Z,6.05
2023-02-04T06:06:50.252Z,6.03
2023-02-04T06:07:49.552Z,6.03
2023-02-04T06:08:50.847Z,6.02
2023-02-04T06:09:51.207Z,6.01
2023-02-04T06:10:50.538Z,6.02
2023-02-04T06:11:50.890Z,5.99
2023-02-04T06:12:50.357Z,5.98
2023-02-04T06:13:50.592Z,6.01
2023-02-04T06:14:50.962Z,6.01
2023-02-04T06:15:50.370Z,5.99
2023-02-04T06:16:50.679Z,6.01
2023-02-04T06:17:50.061Z,6.05
2023-02-04T06:18:49.418Z,6.05
2023-02-04T06:19:50.649Z,6.03
2023-02-04T06:20:51.029Z,6.03
2023-02-04T06:21:50.359Z,6.02
2023-02-04T06:22:50.697Z,6.02
2023-02-04T06:23:50.088Z,6.03
2023-02-04T06:24:49.412Z,6.02
2023-02-04T06:25:50.719Z,6.02
2023-02-04T06:26:50.147Z,6.02
2023-02-04T06:27:49.479Z,6.01
2023-02-04T06:28:50.758Z,6.02
2023-02-04T06:29:51.109Z,5.99
2023-02-04T06:30:49.595Z,5.99
2023-02-04T06:31:49.940Z,5.98
2023-02-04T06:32:50.164Z,5.96
2023-02-04T06:33:49.428Z,5.96
2023-02-04T06:34:50.772Z,5.96
2023-02-04T06:35:49.103Z,5.98
2023-02-04T06:36:50.439Z,5.98
2023-02-04T06:37:49.850Z,5.96
2023-02-04T06:38:50.453Z,5.96
2023-02-04T06:39:49.508Z,5.96
2023-02-04T06:40:50.873Z,5.98
2023-02-04T06:41:49.197Z,5.95
2023-02-04T06:42:50.533Z,5.95
2023-02-04T06:43:50.888Z,5.96
2023-02-04T06:44:50.187Z,5.95
2023-02-04T06:45:49.639Z,5.98
2023-02-04T06:46:48.956Z,5.96
2023-02-04T06:47:49.278Z,5.93
2023-02-04T06:48:49.653Z,5.92
2023-02-04T06:49:48.927Z,5.92
2023-02-04T06:50:49.304Z,5.90
2023-02-04T06:51:49.656Z,5.93
2023-02-04T06:52:48.908Z,5.92
2023-02-04T06:53:50.244Z,5.92
2023-02-04T06:54:49.607Z,5.92
2023-02-04T06:55:48.919Z,5.93
2023-02-04T06:56:49.286Z,5.92
2023-02-04T06:57:49.899Z,5.88
2023-02-04T06:58:48.941Z,5.90
2023-02-04T06:59:49.284Z,5.90
2023-02-04T07:00:50.608Z,5.92
2023-02-04T07:01:49.929Z,5.92
2023-02-04T07:02:49.359Z,5.92
2023-02-04T07:03:49.698Z,5.90
2023-02-04T07:04:48.958Z,5.92
2023-02-04T07:05:50.313Z,5.88
2023-02-04T07:06:50.618Z,5.88
2023-02-04T07:07:48.962Z,5.88
2023-02-04T07:08:49.318Z,5.88
2023-02-04T07:09:50.802Z,5.88
2023-02-04T07:10:49.010Z,5.88
2023-02-04T07:11:50.298Z,5.85
2023-02-04T07:12:48.674Z,5.87
2023-02-04T07:13:49.009Z,5.85
2023-02-04T07:14:49.342Z,5.88
2023-02-04T07:15:48.761Z,5.88
2023-02-04T07:16:49.923Z,5.85
2023-02-04T07:17:50.268Z,5.87
2023-02-04T07:18:49.576Z,5.88
2023-02-04T07:19:49.926Z,5.90
2023-02-04T07:20:50.325Z,5.85
2023-02-04T07:21:49.614Z,5.85
2023-02-04T07:22:49.959Z,5.85
2023-02-04T07:23:50.268Z,5.87
2023-02-04T07:24:49.566Z,5.87
2023-02-04T07:25:49.890Z,5.87
2023-02-04T07:26:50.233Z,5.87
2023-02-04T07:27:48.616Z,5.87
2023-02-04T07:28:49.840Z,5.88
2023-02-04T07:29:49.193Z,5.88
2023-02-04T07:30:49.569Z,5.88
2023-02-04T07:31:48.919Z,5.90
2023-02-04T07:32:49.204Z,5.88
2023-02-04T07:33:48.457Z,5.84
2023-02-04T07:34:49.758Z,5.85
2023-02-04T07:35:49.138Z,5.85
2023-02-04T07:36:48.497Z,5.85
2023-02-04T07:37:48.765Z,5.84
2023-02-04T07:38:49.180Z,5.84
2023-02-04T07:39:48.374Z,5.84
2023-02-04T07:40:49.698Z,5.84
2023-02-04T07:41:50.012Z,5.84
2023-02-04T07:42:49.176Z,5.84
2023-02-04T07:43:49.631Z,5.84
2023-02-04T07:44:49.046Z,5.85
2023-02-04T07:45:48.334Z,5.88
2023-02-04T07:46:49.591Z,5.83
2023-02-04T07:47:49.943Z,5.85
2023-02-04T07:48:48.289Z,5.85
2023-02-04T07:49:49.560Z,5.87
2023-02-04T07:50:48.993Z,5.88
2023-02-04T07:51:48.232Z,5.87
2023-02-04T07:52:49.541Z,5.90
2023-02-04T07:53:49.898Z,5.93
2023-02-04T07:54:48.237Z,5.96
2023-02-04T07:55:48.591Z,5.98
2023-02-04T07:56:49.977Z,5.99
2023-02-04T07:57:49.225Z,5.98
2023-02-04T07:58:49.568Z,5.99
2023-02-04T07:59:49.930Z,6.02
2023-02-04T08:00:49.226Z,6.01
2023-02-04T08:01:48.653Z,6.02
2023-02-04T08:02:50.052Z,6.02
2023-02-04T08:03:49.175Z,6.03
2023-02-04T08:04:49.504Z,6.06
2023-02-04T08:05:49.857Z,6.08
2023-02-04T08:06:49.167Z,6.08
2023-02-04T08:07:49.540Z,6.08
2023-02-04T08:08:48.869Z,6.11
2023-02-04T08:09:48.202Z,6.11
2023-02-04T08:10:48.574Z,6.13
2023-02-04T08:11:48.807Z,6.14
2023-02-04T08:12:48.182Z,6.17
2023-02-04T08:13:48.632Z,6.17
2023-02-04T08:14:48.753Z,6.16
2023-02-04T08:15:49.119Z,6.20
2023-02-04T08:16:49.446Z,6.21
2023-02-04T08:17:47.776Z,6.24
2023-02-04T08:18:49.087Z,6.25
2023-02-04T08:19:49.501Z,6.27
2023-02-04T08:20:47.848Z,6.27
2023-02-04T08:21:49.084Z,6.32
2023-02-04T08:22:49.391Z,6.36
2023-02-04T08:23:47.768Z,6.35
2023-02-04T08:24:48.072Z,6.32
2023-02-04T08:25:49.401Z,6.35
2023-02-04T08:26:49.739Z,6.38
2023-02-04T08:27:48.054Z,6.35
2023-02-04T08:28:48.340Z,6.36
2023-02-04T08:29:47.679Z,6.38
2023-02-04T08:30:48.971Z,6.36
2023-02-04T08:31:49.344Z,6.36
2023-02-04T08:32:48.584Z,6.35
2023-02-04T08:33:49.089Z,6.33
2023-02-04T08:34:48.335Z,6.33
2023-02-04T08:35:48.539Z,6.35
2023-02-04T08:36:47.933Z,6.36
2023-02-04T08:37:48.320Z,6.36
2023-02-04T08:38:47.533Z,6.35
2023-02-04T08:39:48.811Z,6.35
2023-02-04T08:40:48.293Z,6.30
2023-02-04T08:41:47.528Z,6.33
2023-02-04T08:42:48.819Z,6.28
2023-02-04T08:43:49.162Z,6.36
2023-02-04T08:44:47.510Z,6.36
2023-02-04T08:45:47.831Z,6.36
2023-02-04T08:46:49.225Z,6.38
2023-02-04T08:47:48.421Z,6.38
2023-02-04T08:48:47.840Z,6.40
2023-02-04T08:49:49.134Z,6.42
2023-02-04T08:50:47.509Z,6.43
2023-02-04T08:51:47.840Z,6.45
2023-02-04T08:52:49.171Z,6.46
2023-02-04T08:53:47.512Z,6.46
2023-02-04T08:54:47.927Z,6.46
2023-02-04T08:55:49.165Z,6.48
2023-02-04T08:56:48.471Z,6.51
2023-02-04T08:57:49.432Z,6.50
2023-02-04T08:58:48.279Z,6.51
2023-02-04T08:59:48.588Z,6.53
2023-02-04T09:00:47.946Z,6.51
2023-02-04T09:01:50.186Z,6.53
2023-02-04T09:02:48.440Z,6.58
2023-02-04T09:03:48.807Z,6.58
2023-02-04T09:04:48.162Z,6.60
2023-02-04T09:05:47.509Z,6.64
2023-02-04T09:06:48.211Z,6.68
2023-02-04T09:07:54.314Z,6.68
2023-02-04T09:08:47.433Z,6.69
2023-02-04T09:09:48.761Z,6.71
2023-02-04T09:10:49.045Z,6.76
2023-02-04T09:11:48.304Z,6.71
2023-02-04T09:12:47.724Z,6.72
2023-02-04T09:13:48.975Z,6.68
2023-02-04T09:14:48.335Z,6.71
2023-02-04T09:15:47.626Z,6.71
2023-02-04T09:16:47.991Z,6.68
2023-02-04T09:17:47.236Z,6.63
2023-02-04T09:18:48.632Z,6.64
2023-02-04T09:19:47.898Z,6.68
2023-02-04T09:20:47.169Z,6.71
2023-02-04T09:21:47.514Z,6.68
2023-02-04T09:22:47.818Z,6.69
2023-02-04T09:23:47.111Z,6.69
2023-02-04T09:24:47.529Z,6.72
2023-02-04T09:25:47.789Z,6.75
2023-02-04T09:26:47.061Z,6.76
2023-02-04T09:27:47.440Z,6.79
2023-02-04T09:28:47.725Z,6.78
2023-02-04T09:29:47.031Z,6.78
2023-02-04T09:30:47.195Z,6.79
2023-02-04T09:31:47.323Z,6.83
2023-02-04T09:32:47.637Z,6.89
2023-02-04T09:33:46.922Z,6.89
2023-02-04T09:34:47.258Z,6.90
2023-02-04T09:35:47.604Z,6.90
2023-02-04T09:36:47.825Z,6.90
2023-02-04T09:37:48.136Z,6.90
2023-02-04T09:38:47.513Z,6.91
2023-02-04T09:39:47.749Z,6.93
2023-02-04T09:40:47.791Z,6.93
2023-02-04T09:41:48.174Z,6.94
2023-02-04T09:42:48.465Z,6.96
2023-02-04T09:43:46.766Z,6.99
2023-02-04T09:44:48.045Z,6.99
2023-02-04T09:45:48.404Z,7.01
2023-02-04T09:46:47.625Z,7.00
2023-02-04T09:47:47.067Z,7.00
2023-02-04T09:48:48.319Z,7.04
2023-02-04T09:49:46.661Z,7.08
2023-02-04T09:50:47.940Z,7.12
2023-02-04T09:51:47.337Z,7.12
2023-02-04T09:52:48.059Z,7.12
2023-02-04T09:53:47.178Z,7.12
2023-02-04T09:54:48.236Z,7.12
2023-02-04T09:55:46.616Z,7.12
2023-02-04T09:56:47.940Z,7.14
2023-02-04T09:57:48.204Z,7.14
2023-02-04T09:58:46.569Z,7.14
2023-02-04T09:59:47.771Z,7.15
2023-02-04T10:00:48.261Z,7.14
2023-02-04T10:01:46.527Z,7.15
2023-02-04T10:02:47.707Z,7.16
2023-02-04T10:03:47.440Z,7.18
2023-02-04T10:04:46.437Z,7.16
2023-02-04T10:05:46.765Z,7.15
2023-02-04T10:06:47.058Z,7.19
2023-02-04T10:07:48.358Z,7.21
2023-02-04T10:08:47.680Z,7.19
2023-02-04T10:09:47.092Z,7.19
2023-02-04T10:10:47.368Z,7.19
2023-02-04T10:11:47.655Z,7.16
2023-02-04T10:12:47.029Z,7.18
2023-02-04T10:13:47.256Z,7.18
2023-02-04T10:14:46.698Z,7.19
2023-02-04T10:15:46.978Z,7.19
2023-02-04T10:16:47.261Z,7.19
2023-02-04T10:17:46.629Z,7.23
2023-02-04T10:18:47.895Z,7.21
2023-02-04T10:19:46.254Z,7.23
2023-02-04T10:20:46.424Z,7.23
2023-02-04T10:21:46.648Z,7.26
2023-02-04T10:22:50.072Z,7.30
2023-02-04T10:23:46.277Z,7.32
2023-02-04T10:24:46.577Z,7.36
2023-02-04T10:25:46.976Z,7.36
2023-02-04T10:26:46.209Z,7.39
2023-02-04T10:27:46.561Z,7.44
2023-02-04T10:28:46.864Z,7.48
2023-02-04T10:29:46.156Z,7.48
2023-02-04T10:30:46.665Z,7.47
2023-02-04T10:31:47.928Z,7.45
2023-02-04T10:32:46.102Z,7.44
2023-02-04T10:33:46.408Z,7.48
2023-02-04T10:34:46.733Z,7.52
2023-02-04T10:35:45.969Z,7.51
2023-02-04T10:36:46.362Z,7.52
2023-02-04T10:37:46.734Z,7.50
2023-02-04T10:38:47.910Z,7.47
2023-02-04T10:39:46.255Z,7.45
2023-02-04T10:40:46.560Z,7.52
2023-02-04T10:41:48.881Z,7.51
2023-02-04T10:42:46.144Z,7.57
2023-02-04T10:43:46.550Z,7.55
2023-02-04T10:44:46.776Z,7.52
2023-02-04T10:45:46.089Z,7.52
2023-02-04T10:46:46.431Z,7.54
2023-02-04T10:47:46.681Z,7.58
2023-02-04T10:48:45.973Z,7.62
2023-02-04T10:49:46.401Z,7.62
2023-02-04T10:50:46.652Z,7.58
2023-02-04T10:51:45.863Z,7.58
2023-02-04T10:52:46.230Z,7.60
2023-02-04T10:53:46.558Z,7.57
2023-02-04T10:54:45.951Z,7.63
2023-02-04T10:55:46.120Z,7.66
2023-02-04T10:56:46.531Z,7.69
2023-02-04T10:57:45.731Z,7.70
2023-02-04T10:58:46.058Z,7.67
2023-02-04T10:59:46.471Z,7.71
2023-02-04T11:00:46.811Z,7.73
2023-02-04T11:01:46.034Z,7.74
2023-02-04T11:02:46.309Z,7.77
2023-02-04T11:03:48.568Z,7.74
2023-02-04T11:04:45.931Z,7.77
2023-02-04T11:05:46.258Z,7.76
2023-02-04T11:06:46.576Z,7.76
2023-02-04T11:07:45.880Z,7.77
2023-02-04T11:08:47.194Z,7.84
2023-02-04T11:09:48.631Z,7.85
2023-02-04T11:10:46.787Z,7.85
2023-02-04T11:11:46.197Z,7.86
2023-02-04T11:12:46.444Z,7.86
2023-02-04T11:13:45.710Z,7.91
2023-02-04T11:14:46.002Z,7.96
2023-02-04T11:15:48.511Z,7.99
2023-02-04T11:16:45.583Z,7.91
2023-02-04T11:17:45.974Z,7.89
2023-02-04T11:18:46.173Z,7.94
2023-02-04T11:19:46.468Z,7.99
2023-02-04T11:20:46.434Z,8.09
2023-02-04T11:21:46.091Z,8.13
2023-02-04T11:22:46.328Z,8.20
2023-02-04T11:23:45.538Z,8.22
2023-02-04T11:24:45.873Z,8.20
2023-02-04T11:25:46.183Z,8.17
2023-02-04T11:26:45.412Z,8.18
2023-02-04T11:27:45.782Z,8.12
2023-02-04T11:28:46.124Z,8.14
2023-02-04T11:29:46.309Z,8.20
2023-02-04T11:30:45.698Z,8.22
2023-02-04T11:31:46.032Z,8.24
2023-02-04T11:32:46.218Z,8.25
2023-02-04T11:33:45.473Z,8.28
2023-02-04T11:34:45.793Z,8.31
2023-02-04T11:35:47.052Z,8.32
2023-02-04T11:36:46.312Z,8.36
2023-02-04T11:37:45.626Z,8.42
2023-02-04T11:38:45.906Z,8.40
2023-02-04T11:39:46.203Z,8.40
2023-02-04T11:40:45.585Z,8.34
2023-02-04T11:41:45.805Z,8.36
2023-02-04T11:42:46.115Z,8.36
2023-02-04T11:43:45.336Z,8.42
2023-02-04T11:44:46.605Z,8.42
2023-02-04T11:45:45.985Z,8.45
2023-02-04T11:46:45.213Z,8.45
2023-02-04T11:47:45.556Z,8.43
2023-02-04T11:48:45.831Z,8.43
2023-02-04T11:49:45.108Z,8.40
2023-02-04T11:50:45.389Z,8.34
2023-02-04T11:51:45.984Z,8.34
2023-02-04T11:52:45.986Z,8.29
2023-02-04T11:53:45.338Z,8.29
2023-02-04T11:54:45.588Z,8.31
2023-02-04T11:55:47.569Z,8.29
2023-02-04T11:56:45.170Z,8.31
2023-02-04T11:57:45.560Z,8.31
2023-02-04T11:58:45.810Z,8.32
2023-02-04T11:59:46.139Z,8.37
2023-02-04T12:00:45.394Z,8.37
2023-02-04T12:01:45.703Z,8.40
2023-02-04T12:02:44.969Z,8.40
2023-02-04T12:03:45.322Z,8.39
2023-02-04T12:04:45.498Z,8.39
2023-02-04T12:05:45.775Z,8.34
2023-02-04T12:06:45.987Z,8.31
2023-02-04T12:07:45.339Z,8.31
2023-02-04T12:08:45.631Z,8.34
2023-02-04T12:09:44.927Z,8.39
2023-02-04T12:10:45.172Z,8.42
2023-02-04T12:11:45.472Z,8.46
2023-02-04T12:12:44.742Z,8.45
2023-02-04T12:13:46.031Z,8.40
2023-02-04T12:14:45.509Z,8.43
2023-02-04T12:15:45.741Z,8.45
2023-02-04T12:16:44.952Z,8.45
2023-02-04T12:17:46.228Z,8.39
2023-02-04T12:18:45.585Z,8.37
2023-02-04T12:19:45.863Z,8.37
2023-02-04T12:20:45.247Z,8.31
2023-02-04T12:21:46.476Z,8.31
2023-02-04T12:22:44.810Z,8.32
2023-02-04T12:23:45.108Z,8.36
2023-02-04T12:24:45.446Z,8.37
2023-02-04T12:25:44.699Z,8.42
2023-02-04T12:26:45.114Z,8.39
2023-02-04T12:27:45.365Z,8.42
2023-02-04T12:28:44.634Z,8.42
2023-02-04T12:29:44.949Z,8.43
2023-02-04T12:30:45.358Z,8.45
2023-02-04T12:31:44.664Z,8.45
2023-02-04T12:32:44.980Z,8.49
2023-02-04T12:33:45.260Z,8.49
2023-02-04T12:34:44.519Z,8.47
2023-02-04T12:35:44.824Z,8.50
2023-02-04T12:36:45.139Z,8.45
2023-02-04T12:37:44.419Z,8.45
2023-02-04T12:38:44.793Z,8.43
2023-02-04T12:39:45.049Z,8.47
2023-02-04T12:40:46.294Z,8.47
2023-02-04T12:41:45.529Z,8.46
2023-02-04T12:42:45.827Z,8.46
2023-02-04T12:43:45.175Z,8.43
2023-02-04T12:44:44.425Z,8.42
2023-02-04T12:45:44.722Z,8.43
2023-02-04T12:46:45.093Z,8.45
2023-02-04T12:47:44.305Z,8.36
2023-02-04T12:48:44.633Z,8.46
2023-02-04T12:49:44.905Z,8.43
2023-02-04T12:50:45.211Z,8.45
2023-02-04T12:51:44.448Z,8.45
2023-02-04T12:52:44.732Z,8.46
2023-02-04T12:53:45.046Z,8.47
2023-02-04T12:54:44.285Z,8.46
2023-02-04T12:55:44.587Z,8.45
2023-02-04T12:56:44.865Z,8.45
2023-02-04T12:57:45.103Z,8.43
2023-02-04T12:58:44.431Z,8.45
2023-02-04T12:59:44.818Z,8.47
2023-02-04T13:00:45.120Z,8.50
2023-02-04T13:01:44.479Z,8.49
2023-02-04T13:02:45.568Z,8.49
2023-02-04T13:03:44.936Z,8.47
2023-02-04T13:04:44.210Z,8.46
2023-02-04T13:05:44.581Z,8.42
2023-02-04T13:06:44.854Z,8.39
2023-02-04T13:07:44.113Z,8.43
2023-02-04T13:08:44.440Z,8.42
2023-02-04T13:09:47.866Z,8.42
2023-02-04T13:10:44.977Z,8.40
2023-02-04T13:11:44.741Z,8.43
2023-02-04T13:12:44.638Z,8.46
2023-02-04T13:13:45.876Z,8.47
2023-02-04T13:14:44.268Z,8.47
2023-02-04T13:15:45.431Z,8.47
2023-02-04T13:16:44.826Z,8.45
2023-02-04T13:17:44.106Z,8.45
2023-02-04T13:18:45.441Z,8.47